sensor_id;sensor_type;location;lat;lon;timestamp;P1;durP1;ratioP1;P2;durP2;ratioP2
57217;SDS011;43078;52.972;6.482;2023-08-07T00:02:01;4.15;;;2.85;;
57217;SDS011;43078;52.972;6.482;2023-08-07T00:04:28;5.88;;;3.20;;
57217;SDS011;43078;52.972;6.482;2023-08-07T00:06:53;5.43;;;2.92;;
57217;SDS011;43078;52.972;6.482;2023-08-07T00:09:19;8.57;;;4.50;;
57217;SDS011;43078;52.972;6.482;2023-08-07T00:11:45;5.30;;;3.08;;
57217;SDS011;43078;52.972;6.482;2023-08-07T00:14:10;5.75;;;3.30;;
57217;SDS011;43078;52.972;6.482;2023-08-07T00:16:36;7.95;;;4.47;;
57217;SDS011;43078;52.972;6.482;2023-08-07T00:19:02;4.40;;;2.80;;
57217;SDS011;43078;52.972;6.482;2023-08-07T00:21:28;4.30;;;3.00;;
57217;SDS011;43078;52.972;6.482;2023-08-07T00:23:54;6.97;;;3.53;;
57217;SDS011;43078;52.972;6.482;2023-08-07T00:26:22;4.75;;;2.80;;
57217;SDS011;43078;52.972;6.482;2023-08-07T00:28:51;6.93;;;3.60;;
57217;SDS011;43078;52.972;6.482;2023-08-07T00:31:16;6.22;;;3.25;;
57217;SDS011;43078;52.972;6.482;2023-08-07T00:33:42;4.72;;;2.90;;
57217;SDS011;43078;52.972;6.482;2023-08-07T00:36:08;6.65;;;3.15;;
57217;SDS011;43078;52.972;6.482;2023-08-07T00:38:34;5.15;;;3.35;;
57217;SDS011;43078;52.972;6.482;2023-08-07T00:40:59;8.18;;;3.53;;
57217;SDS011;43078;52.972;6.482;2023-08-07T00:43:25;6.60;;;3.30;;
57217;SDS011;43078;52.972;6.482;2023-08-07T00:45:51;6.72;;;3.20;;
57217;SDS011;43078;52.972;6.482;2023-08-07T00:48:17;6.55;;;3.28;;
57217;SDS011;43078;52.972;6.482;2023-08-07T00:50:43;6.22;;;2.88;;
57217;SDS011;43078;52.972;6.482;2023-08-07T00:53:11;5.10;;;2.50;;
57217;SDS011;43078;52.972;6.482;2023-08-07T00:55:36;5.40;;;3.00;;
57217;SDS011;43078;52.972;6.482;2023-08-07T00:58:02;4.68;;;2.60;;
57217;SDS011;43078;52.972;6.482;2023-08-07T01:00:28;5.30;;;2.83;;
57217;SDS011;43078;52.972;6.482;2023-08-07T01:02:57;5.85;;;2.95;;
57217;SDS011;43078;52.972;6.482;2023-08-07T01:05:24;5.88;;;2.95;;
57217;SDS011;43078;52.972;6.482;2023-08-07T01:07:51;5.88;;;2.70;;
57217;SDS011;43078;52.972;6.482;2023-08-07T01:10:22;6.13;;;3.05;;
57217;SDS011;43078;52.972;6.482;2023-08-07T01:13:27;5.43;;;2.78;;
57217;SDS011;43078;52.972;6.482;2023-08-07T01:16:21;5.57;;;3.00;;
57217;SDS011;43078;52.972;6.482;2023-08-07T01:18:53;5.55;;;2.45;;
57217;SDS011;43078;52.972;6.482;2023-08-07T01:21:21;4.88;;;2.47;;
57217;SDS011;43078;52.972;6.482;2023-08-07T01:23:47;5.97;;;2.50;;
57217;SDS011;43078;52.972;6.482;2023-08-07T01:26:13;5.38;;;2.55;;
57217;SDS011;43078;52.972;6.482;2023-08-07T01:28:52;6.95;;;2.47;;
57217;SDS011;43078;52.972;6.482;2023-08-07T01:31:21;4.40;;;2.47;;
57217;SDS011;43078;52.972;6.482;2023-08-07T01:33:51;5.13;;;2.58;;
57217;SDS011;43078;52.972;6.482;2023-08-07T01:38:49;6.18;;;2.33;;
57217;SDS011;43078;52.972;6.482;2023-08-07T01:41:17;5.72;;;2.25;;
57217;SDS011;43078;52.972;6.482;2023-08-07T01:43:43;7.15;;;2.30;;
57217;SDS011;43078;52.972;6.482;2023-08-07T01:46:10;6.75;;;2.53;;
57217;SDS011;43078;52.972;6.482;2023-08-07T01:48:36;7.03;;;2.05;;
57217;SDS011;43078;52.972;6.482;2023-08-07T01:51:02;5.75;;;2.30;;
57217;SDS011;43078;52.972;6.482;2023-08-07T01:53:27;5.35;;;2.10;;
57217;SDS011;43078;52.972;6.482;2023-08-07T01:55:53;6.20;;;1.90;;
57217;SDS011;43078;52.972;6.482;2023-08-07T01:58:19;8.98;;;2.17;;
57217;SDS011;43078;52.972;6.482;2023-08-07T02:00:44;9.13;;;2.30;;
57217;SDS011;43078;52.972;6.482;2023-08-07T02:03:10;7.90;;;2.15;;
57217;SDS011;43078;52.972;6.482;2023-08-07T02:05:35;7.35;;;2.15;;
57217;SDS011;43078;52.972;6.482;2023-08-07T02:08:01;4.50;;;1.85;;
57217;SDS011;43078;52.972;6.482;2023-08-07T02:10:26;8.80;;;2.20;;
57217;SDS011;43078;52.972;6.482;2023-08-07T02:12:53;4.75;;;1.90;;
57217;SDS011;43078;52.972;6.482;2023-08-07T02:15:18;5.80;;;2.00;;
57217;SDS011;43078;52.972;6.482;2023-08-07T02:17:44;7.03;;;2.15;;
57217;SDS011;43078;52.972;6.482;2023-08-07T02:20:10;4.43;;;1.70;;
57217;SDS011;43078;52.972;6.482;2023-08-07T02:22:36;6.70;;;2.00;;
57217;SDS011;43078;52.972;6.482;2023-08-07T02:25:01;6.63;;;2.10;;
57217;SDS011;43078;52.972;6.482;2023-08-07T02:27:27;7.03;;;2.10;;
57217;SDS011;43078;52.972;6.482;2023-08-07T02:29:53;5.53;;;2.00;;
57217;SDS011;43078;52.972;6.482;2023-08-07T02:32:19;6.85;;;2.17;;
57217;SDS011;43078;52.972;6.482;2023-08-07T02:34:45;6.13;;;1.80;;
57217;SDS011;43078;52.972;6.482;2023-08-07T02:37:11;6.28;;;1.75;;
57217;SDS011;43078;52.972;6.482;2023-08-07T02:39:36;7.78;;;2.10;;
57217;SDS011;43078;52.972;6.482;2023-08-07T02:42:02;7.03;;;1.90;;
57217;SDS011;43078;52.972;6.482;2023-08-07T02:44:28;12.15;;;2.05;;
57217;SDS011;43078;52.972;6.482;2023-08-07T02:46:54;6.47;;;2.15;;
57217;SDS011;43078;52.972;6.482;2023-08-07T02:49:22;5.40;;;1.83;;
57217;SDS011;43078;52.972;6.482;2023-08-07T02:51:48;5.47;;;1.65;;
57217;SDS011;43078;52.972;6.482;2023-08-07T02:54:14;8.55;;;1.67;;
57217;SDS011;43078;52.972;6.482;2023-08-07T02:56:42;4.85;;;1.58;;
57217;SDS011;43078;52.972;6.482;2023-08-07T02:59:08;7.22;;;1.98;;
57217;SDS011;43078;52.972;6.482;2023-08-07T03:01:34;6.70;;;1.75;;
57217;SDS011;43078;52.972;6.482;2023-08-07T03:03:59;5.05;;;1.65;;
57217;SDS011;43078;52.972;6.482;2023-08-07T03:06:28;7.15;;;1.88;;
57217;SDS011;43078;52.972;6.482;2023-08-07T03:08:53;8.55;;;1.80;;
57217;SDS011;43078;52.972;6.482;2023-08-07T03:11:20;9.00;;;2.03;;
57217;SDS011;43078;52.972;6.482;2023-08-07T03:13:46;5.28;;;1.60;;
57217;SDS011;43078;52.972;6.482;2023-08-07T03:16:12;6.03;;;1.70;;
57217;SDS011;43078;52.972;6.482;2023-08-07T03:18:38;12.85;;;2.30;;
57217;SDS011;43078;52.972;6.482;2023-08-07T03:21:07;10.65;;;2.10;;
57217;SDS011;43078;52.972;6.482;2023-08-07T03:23:33;14.40;;;2.20;;
57217;SDS011;43078;52.972;6.482;2023-08-07T03:26:03;8.82;;;1.83;;
57217;SDS011;43078;52.972;6.482;2023-08-07T03:28:28;8.68;;;1.70;;
57217;SDS011;43078;52.972;6.482;2023-08-07T03:30:58;8.00;;;1.75;;
57217;SDS011;43078;52.972;6.482;2023-08-07T03:33:27;6.28;;;1.65;;
57217;SDS011;43078;52.972;6.482;2023-08-07T03:35:53;8.15;;;1.77;;
57217;SDS011;43078;52.972;6.482;2023-08-07T03:38:22;9.00;;;2.30;;
57217;SDS011;43078;52.972;6.482;2023-08-07T03:40:48;9.38;;;1.70;;
57217;SDS011;43078;52.972;6.482;2023-08-07T03:43:14;7.78;;;2.10;;
57217;SDS011;43078;52.972;6.482;2023-08-07T03:45:40;10.13;;;2.10;;
57217;SDS011;43078;52.972;6.482;2023-08-07T03:48:06;9.43;;;1.73;;
57217;SDS011;43078;52.972;6.482;2023-08-07T03:50:31;8.55;;;1.83;;
57217;SDS011;43078;52.972;6.482;2023-08-07T03:53:00;8.23;;;1.80;;
57217;SDS011;43078;52.972;6.482;2023-08-07T03:55:26;9.20;;;2.20;;
57217;SDS011;43078;52.972;6.482;2023-08-07T03:57:52;8.35;;;2.22;;
57217;SDS011;43078;52.972;6.482;2023-08-07T04:00:17;7.10;;;1.77;;
57217;SDS011;43078;52.972;6.482;2023-08-07T04:02:43;8.40;;;2.33;;
57217;SDS011;43078;52.972;6.482;2023-08-07T04:05:09;8.65;;;1.73;;
57217;SDS011;43078;52.972;6.482;2023-08-07T04:07:35;9.15;;;2.17;;
57217;SDS011;43078;52.972;6.482;2023-08-07T04:10:01;9.27;;;1.73;;
57217;SDS011;43078;52.972;6.482;2023-08-07T04:12:27;9.60;;;1.90;;
57217;SDS011;43078;52.972;6.482;2023-08-07T04:14:53;6.00;;;2.05;;
57217;SDS011;43078;52.972;6.482;2023-08-07T04:17:18;8.43;;;1.80;;
57217;SDS011;43078;52.972;6.482;2023-08-07T04:19:44;6.60;;;1.70;;
57217;SDS011;43078;52.972;6.482;2023-08-07T04:22:09;6.63;;;1.90;;
57217;SDS011;43078;52.972;6.482;2023-08-07T04:24:35;9.07;;;1.90;;
57217;SDS011;43078;52.972;6.482;2023-08-07T04:27:01;6.55;;;1.70;;
57217;SDS011;43078;52.972;6.482;2023-08-07T04:29:26;7.80;;;2.00;;
57217;SDS011;43078;52.972;6.482;2023-08-07T04:31:52;8.40;;;2.03;;
57217;SDS011;43078;52.972;6.482;2023-08-07T04:34:18;6.65;;;2.03;;
57217;SDS011;43078;52.972;6.482;2023-08-07T04:36:44;9.35;;;1.90;;
57217;SDS011;43078;52.972;6.482;2023-08-07T04:39:09;8.98;;;2.08;;
57217;SDS011;43078;52.972;6.482;2023-08-07T04:41:36;6.03;;;1.65;;
57217;SDS011;43078;52.972;6.482;2023-08-07T04:44:02;8.35;;;1.90;;
57217;SDS011;43078;52.972;6.482;2023-08-07T04:46:27;5.40;;;1.40;;
57217;SDS011;43078;52.972;6.482;2023-08-07T04:48:58;9.85;;;2.20;;
57217;SDS011;43078;52.972;6.482;2023-08-07T04:51:24;8.07;;;2.00;;
57217;SDS011;43078;52.972;6.482;2023-08-07T04:53:50;9.77;;;2.10;;
57217;SDS011;43078;52.972;6.482;2023-08-07T04:56:16;13.90;;;2.50;;
57217;SDS011;43078;52.972;6.482;2023-08-07T04:58:42;7.15;;;1.85;;
57217;SDS011;43078;52.972;6.482;2023-08-07T05:01:08;10.40;;;2.58;;
57217;SDS011;43078;52.972;6.482;2023-08-07T05:03:34;13.07;;;2.92;;
57217;SDS011;43078;52.972;6.482;2023-08-07T05:06:00;11.25;;;2.13;;
57217;SDS011;43078;52.972;6.482;2023-08-07T05:08:26;7.90;;;2.25;;
57217;SDS011;43078;52.972;6.482;2023-08-07T05:10:52;10.63;;;2.08;;
57217;SDS011;43078;52.972;6.482;2023-08-07T05:13:18;9.70;;;2.30;;
57217;SDS011;43078;52.972;6.482;2023-08-07T05:15:43;8.60;;;2.10;;
57217;SDS011;43078;52.972;6.482;2023-08-07T05:18:11;5.57;;;1.85;;
57217;SDS011;43078;52.972;6.482;2023-08-07T05:20:37;5.75;;;1.70;;
57217;SDS011;43078;52.972;6.482;2023-08-07T05:23:03;6.75;;;1.95;;
57217;SDS011;43078;52.972;6.482;2023-08-07T05:25:28;9.07;;;2.42;;
57217;SDS011;43078;52.972;6.482;2023-08-07T05:27:54;8.57;;;2.28;;
57217;SDS011;43078;52.972;6.482;2023-08-07T05:30:19;8.98;;;2.25;;
57217;SDS011;43078;52.972;6.482;2023-08-07T05:32:45;14.05;;;2.78;;
57217;SDS011;43078;52.972;6.482;2023-08-07T05:35:11;16.13;;;2.92;;
57217;SDS011;43078;52.972;6.482;2023-08-07T05:37:36;12.57;;;2.67;;
57217;SDS011;43078;52.972;6.482;2023-08-07T05:40:02;10.73;;;2.45;;
57217;SDS011;43078;52.972;6.482;2023-08-07T05:42:29;10.07;;;2.40;;
57217;SDS011;43078;52.972;6.482;2023-08-07T05:44:55;14.73;;;2.95;;
57217;SDS011;43078;52.972;6.482;2023-08-07T05:47:20;13.05;;;2.90;;
57217;SDS011;43078;52.972;6.482;2023-08-07T05:49:46;8.65;;;2.42;;
57217;SDS011;43078;52.972;6.482;2023-08-07T05:52:14;9.52;;;2.28;;
57217;SDS011;43078;52.972;6.482;2023-08-07T05:54:40;17.48;;;3.45;;
57217;SDS011;43078;52.972;6.482;2023-08-07T05:57:06;14.27;;;3.13;;
57217;SDS011;43078;52.972;6.482;2023-08-07T05:59:32;10.63;;;3.05;;
57217;SDS011;43078;52.972;6.482;2023-08-07T06:01:59;14.65;;;3.05;;
57217;SDS011;43078;52.972;6.482;2023-08-07T06:04:25;10.68;;;2.72;;
57217;SDS011;43078;52.972;6.482;2023-08-07T06:06:50;9.85;;;2.95;;
57217;SDS011;43078;52.972;6.482;2023-08-07T06:09:16;13.20;;;3.60;;
57217;SDS011;43078;52.972;6.482;2023-08-07T06:11:42;15.00;;;3.33;;
57217;SDS011;43078;52.972;6.482;2023-08-07T06:14:08;13.88;;;2.75;;
57217;SDS011;43078;52.972;6.482;2023-08-07T06:16:33;11.63;;;2.80;;
57217;SDS011;43078;52.972;6.482;2023-08-07T06:19:00;6.43;;;2.20;;
57217;SDS011;43078;52.972;6.482;2023-08-07T06:21:26;12.50;;;2.88;;
57217;SDS011;43078;52.972;6.482;2023-08-07T06:23:53;15.48;;;3.20;;
57217;SDS011;43078;52.972;6.482;2023-08-07T06:26:19;13.25;;;2.95;;
57217;SDS011;43078;52.972;6.482;2023-08-07T06:28:44;13.77;;;2.90;;
57217;SDS011;43078;52.972;6.482;2023-08-07T06:31:10;12.98;;;2.72;;
57217;SDS011;43078;52.972;6.482;2023-08-07T06:33:37;13.80;;;3.00;;
57217;SDS011;43078;52.972;6.482;2023-08-07T06:36:03;11.05;;;2.50;;
57217;SDS011;43078;52.972;6.482;2023-08-07T06:38:32;11.50;;;2.65;;
57217;SDS011;43078;52.972;6.482;2023-08-07T06:40:58;11.00;;;2.83;;
57217;SDS011;43078;52.972;6.482;2023-08-07T06:43:24;14.93;;;4.25;;
57217;SDS011;43078;52.972;6.482;2023-08-07T06:45:54;13.75;;;3.72;;
57217;SDS011;43078;52.972;6.482;2023-08-07T06:48:21;12.85;;;2.92;;
57217;SDS011;43078;52.972;6.482;2023-08-07T06:50:48;12.73;;;3.35;;
57217;SDS011;43078;52.972;6.482;2023-08-07T06:53:14;13.25;;;2.70;;
57217;SDS011;43078;52.972;6.482;2023-08-07T06:55:43;13.15;;;3.20;;
57217;SDS011;43078;52.972;6.482;2023-08-07T06:58:10;13.15;;;2.83;;
57217;SDS011;43078;52.972;6.482;2023-08-07T07:00:36;8.20;;;2.95;;
57217;SDS011;43078;52.972;6.482;2023-08-07T07:03:02;12.13;;;3.00;;
57217;SDS011;43078;52.972;6.482;2023-08-07T07:05:29;9.95;;;2.63;;
57217;SDS011;43078;52.972;6.482;2023-08-07T07:07:55;12.43;;;3.33;;
57217;SDS011;43078;52.972;6.482;2023-08-07T07:10:21;11.95;;;2.80;;
57217;SDS011;43078;52.972;6.482;2023-08-07T07:12:47;13.05;;;3.03;;
57217;SDS011;43078;52.972;6.482;2023-08-07T07:15:13;11.68;;;2.85;;
57217;SDS011;43078;52.972;6.482;2023-08-07T07:17:39;10.18;;;2.30;;
57217;SDS011;43078;52.972;6.482;2023-08-07T07:20:05;10.60;;;2.20;;
57217;SDS011;43078;52.972;6.482;2023-08-07T07:22:31;9.05;;;2.22;;
57217;SDS011;43078;52.972;6.482;2023-08-07T07:24:56;7.68;;;2.08;;
57217;SDS011;43078;52.972;6.482;2023-08-07T07:27:22;10.85;;;2.22;;
57217;SDS011;43078;52.972;6.482;2023-08-07T07:29:50;8.93;;;2.47;;
57217;SDS011;43078;52.972;6.482;2023-08-07T07:32:15;10.82;;;2.30;;
57217;SDS011;43078;52.972;6.482;2023-08-07T07:34:41;9.55;;;2.17;;
57217;SDS011;43078;52.972;6.482;2023-08-07T07:37:07;7.32;;;2.15;;
57217;SDS011;43078;52.972;6.482;2023-08-07T07:39:34;8.57;;;1.88;;
57217;SDS011;43078;52.972;6.482;2023-08-07T07:41:59;6.75;;;1.65;;
57217;SDS011;43078;52.972;6.482;2023-08-07T07:44:25;11.75;;;2.15;;
57217;SDS011;43078;52.972;6.482;2023-08-07T07:46:51;8.85;;;1.95;;
57217;SDS011;43078;52.972;6.482;2023-08-07T07:49:16;8.25;;;2.45;;
57217;SDS011;43078;52.972;6.482;2023-08-07T07:51:42;9.55;;;2.50;;
57217;SDS011;43078;52.972;6.482;2023-08-07T07:54:09;8.15;;;2.13;;
57217;SDS011;43078;52.972;6.482;2023-08-07T07:56:35;8.52;;;2.20;;
57217;SDS011;43078;52.972;6.482;2023-08-07T07:59:01;7.35;;;2.03;;
57217;SDS011;43078;52.972;6.482;2023-08-07T08:01:26;8.80;;;2.30;;
57217;SDS011;43078;52.972;6.482;2023-08-07T08:03:53;9.70;;;2.30;;
57217;SDS011;43078;52.972;6.482;2023-08-07T08:06:19;12.65;;;2.60;;
57217;SDS011;43078;52.972;6.482;2023-08-07T08:08:44;10.13;;;2.35;;
57217;SDS011;43078;52.972;6.482;2023-08-07T08:11:10;11.65;;;2.63;;
57217;SDS011;43078;52.972;6.482;2023-08-07T08:13:36;9.45;;;2.10;;
57217;SDS011;43078;52.972;6.482;2023-08-07T08:16:04;14.52;;;2.63;;
57217;SDS011;43078;52.972;6.482;2023-08-07T08:18:30;7.32;;;2.45;;
57217;SDS011;43078;52.972;6.482;2023-08-07T08:20:55;9.38;;;2.55;;
57217;SDS011;43078;52.972;6.482;2023-08-07T08:23:21;7.35;;;2.40;;
57217;SDS011;43078;52.972;6.482;2023-08-07T08:25:47;10.23;;;2.38;;
57217;SDS011;43078;52.972;6.482;2023-08-07T08:28:13;8.48;;;2.42;;
57217;SDS011;43078;52.972;6.482;2023-08-07T08:30:39;11.98;;;2.60;;
57217;SDS011;43078;52.972;6.482;2023-08-07T08:33:05;9.27;;;2.47;;
57217;SDS011;43078;52.972;6.482;2023-08-07T08:35:31;10.73;;;2.65;;
57217;SDS011;43078;52.972;6.482;2023-08-07T08:37:56;10.52;;;2.92;;
57217;SDS011;43078;52.972;6.482;2023-08-07T08:40:23;8.93;;;2.72;;
57217;SDS011;43078;52.972;6.482;2023-08-07T08:42:49;12.38;;;3.15;;
57217;SDS011;43078;52.972;6.482;2023-08-07T08:45:18;12.82;;;3.22;;
57217;SDS011;43078;52.972;6.482;2023-08-07T08:47:46;15.65;;;3.13;;
57217;SDS011;43078;52.972;6.482;2023-08-07T08:50:14;13.32;;;3.42;;
57217;SDS011;43078;52.972;6.482;2023-08-07T08:52:43;10.90;;;3.05;;
57217;SDS011;43078;52.972;6.482;2023-08-07T08:55:11;12.93;;;2.92;;
57217;SDS011;43078;52.972;6.482;2023-08-07T08:57:37;8.27;;;2.60;;
57217;SDS011;43078;52.972;6.482;2023-08-07T09:00:07;13.32;;;2.67;;
57217;SDS011;43078;52.972;6.482;2023-08-07T09:02:43;10.13;;;3.00;;
57217;SDS011;43078;52.972;6.482;2023-08-07T09:05:15;8.73;;;2.65;;
57217;SDS011;43078;52.972;6.482;2023-08-07T09:07:42;12.10;;;2.90;;
57217;SDS011;43078;52.972;6.482;2023-08-07T09:10:12;11.73;;;2.70;;
57217;SDS011;43078;52.972;6.482;2023-08-07T09:12:42;13.23;;;2.85;;
57217;SDS011;43078;52.972;6.482;2023-08-07T09:15:16;9.57;;;2.58;;
57217;SDS011;43078;52.972;6.482;2023-08-07T09:17:44;10.55;;;2.50;;
57217;SDS011;43078;52.972;6.482;2023-08-07T09:20:11;11.13;;;2.40;;
57217;SDS011;43078;52.972;6.482;2023-08-07T09:22:41;9.00;;;2.50;;
57217;SDS011;43078;52.972;6.482;2023-08-07T09:25:07;11.48;;;2.58;;
57217;SDS011;43078;52.972;6.482;2023-08-07T09:27:35;14.10;;;2.65;;
57217;SDS011;43078;52.972;6.482;2023-08-07T09:30:02;10.52;;;2.30;;
57217;SDS011;43078;52.972;6.482;2023-08-07T09:32:28;11.05;;;2.42;;
57217;SDS011;43078;52.972;6.482;2023-08-07T09:34:53;8.70;;;2.35;;
57217;SDS011;43078;52.972;6.482;2023-08-07T09:37:20;7.95;;;2.10;;
57217;SDS011;43078;52.972;6.482;2023-08-07T09:39:45;11.80;;;2.80;;
57217;SDS011;43078;52.972;6.482;2023-08-07T09:42:15;7.90;;;2.17;;
57217;SDS011;43078;52.972;6.482;2023-08-07T09:44:41;15.07;;;2.55;;
57217;SDS011;43078;52.972;6.482;2023-08-07T09:47:17;11.25;;;2.55;;
57217;SDS011;43078;52.972;6.482;2023-08-07T09:49:44;12.52;;;2.58;;
57217;SDS011;43078;52.972;6.482;2023-08-07T09:52:10;10.45;;;2.47;;
57217;SDS011;43078;52.972;6.482;2023-08-07T09:54:40;10.35;;;2.50;;
57217;SDS011;43078;52.972;6.482;2023-08-07T09:57:07;11.75;;;2.60;;
57217;SDS011;43078;52.972;6.482;2023-08-07T09:59:33;7.80;;;2.10;;
57217;SDS011;43078;52.972;6.482;2023-08-07T10:02:00;10.73;;;2.90;;
57217;SDS011;43078;52.972;6.482;2023-08-07T10:04:30;13.38;;;2.75;;
57217;SDS011;43078;52.972;6.482;2023-08-07T10:06:56;10.02;;;3.05;;
57217;SDS011;43078;52.972;6.482;2023-08-07T10:09:23;13.63;;;2.88;;
57217;SDS011;43078;52.972;6.482;2023-08-07T10:11:49;11.20;;;3.25;;
57217;SDS011;43078;52.972;6.482;2023-08-07T10:14:15;12.82;;;2.80;;
57217;SDS011;43078;52.972;6.482;2023-08-07T10:16:41;12.30;;;2.60;;
57217;SDS011;43078;52.972;6.482;2023-08-07T10:19:08;11.73;;;2.60;;
57217;SDS011;43078;52.972;6.482;2023-08-07T10:21:38;10.73;;;2.20;;
57217;SDS011;43078;52.972;6.482;2023-08-07T10:24:05;12.77;;;3.00;;
57217;SDS011;43078;52.972;6.482;2023-08-07T10:26:32;13.50;;;2.58;;
57217;SDS011;43078;52.972;6.482;2023-08-07T10:28:59;8.27;;;2.28;;
57217;SDS011;43078;52.972;6.482;2023-08-07T10:31:27;11.27;;;2.45;;
57217;SDS011;43078;52.972;6.482;2023-08-07T10:33:55;11.90;;;2.70;;
57217;SDS011;43078;52.972;6.482;2023-08-07T10:36:21;10.65;;;2.60;;
57217;SDS011;43078;52.972;6.482;2023-08-07T10:38:50;11.15;;;2.72;;
57217;SDS011;43078;52.972;6.482;2023-08-07T10:41:37;10.75;;;2.53;;
57217;SDS011;43078;52.972;6.482;2023-08-07T10:44:04;15.57;;;2.70;;
57217;SDS011;43078;52.972;6.482;2023-08-07T10:46:44;10.90;;;2.65;;
57217;SDS011;43078;52.972;6.482;2023-08-07T10:49:13;10.27;;;2.90;;
57217;SDS011;43078;52.972;6.482;2023-08-07T10:54:46;9.98;;;2.30;;
57217;SDS011;43078;52.972;6.482;2023-08-07T10:57:15;11.50;;;2.65;;
57217;SDS011;43078;52.972;6.482;2023-08-07T10:59:49;12.82;;;2.50;;
57217;SDS011;43078;52.972;6.482;2023-08-07T11:02:23;11.23;;;2.70;;
57217;SDS011;43078;52.972;6.482;2023-08-07T11:04:51;14.07;;;2.55;;
57217;SDS011;43078;52.972;6.482;2023-08-07T11:07:27;10.20;;;2.30;;
57217;SDS011;43078;52.972;6.482;2023-08-07T11:09:55;9.90;;;2.58;;
57217;SDS011;43078;52.972;6.482;2023-08-07T11:12:24;11.40;;;2.42;;
57217;SDS011;43078;52.972;6.482;2023-08-07T11:14:50;10.23;;;2.38;;
57217;SDS011;43078;52.972;6.482;2023-08-07T11:17:29;9.40;;;2.55;;
57217;SDS011;43078;52.972;6.482;2023-08-07T11:19:55;6.13;;;1.90;;
57217;SDS011;43078;52.972;6.482;2023-08-07T11:22:21;10.25;;;1.70;;
57217;SDS011;43078;52.972;6.482;2023-08-07T11:24:50;7.13;;;2.17;;
57217;SDS011;43078;52.972;6.482;2023-08-07T11:27:16;10.65;;;2.08;;
57217;SDS011;43078;52.972;6.482;2023-08-07T11:29:47;8.60;;;1.92;;
57217;SDS011;43078;52.972;6.482;2023-08-07T11:32:16;7.20;;;1.75;;
57217;SDS011;43078;52.972;6.482;2023-08-07T11:34:50;8.75;;;2.00;;
57217;SDS011;43078;52.972;6.482;2023-08-07T11:37:19;7.60;;;1.90;;
57217;SDS011;43078;52.972;6.482;2023-08-07T11:39:44;12.50;;;1.90;;
57217;SDS011;43078;52.972;6.482;2023-08-07T11:42:11;8.57;;;1.98;;
57217;SDS011;43078;52.972;6.482;2023-08-07T11:44:41;8.90;;;1.65;;
57217;SDS011;43078;52.972;6.482;2023-08-07T11:47:07;10.23;;;2.17;;
57217;SDS011;43078;52.972;6.482;2023-08-07T11:49:33;6.13;;;1.90;;
57217;SDS011;43078;52.972;6.482;2023-08-07T11:52:02;9.95;;;1.90;;
57217;SDS011;43078;52.972;6.482;2023-08-07T11:54:34;6.65;;;1.90;;
57217;SDS011;43078;52.972;6.482;2023-08-07T11:56:59;12.02;;;2.35;;
57217;SDS011;43078;52.972;6.482;2023-08-07T11:59:28;7.32;;;2.00;;
57217;SDS011;43078;52.972;6.482;2023-08-07T12:01:54;9.30;;;2.10;;
57217;SDS011;43078;52.972;6.482;2023-08-07T12:04:20;9.55;;;1.80;;
57217;SDS011;43078;52.972;6.482;2023-08-07T12:06:55;8.70;;;1.85;;
57217;SDS011;43078;52.972;6.482;2023-08-07T12:09:25;11.40;;;2.45;;
57217;SDS011;43078;52.972;6.482;2023-08-07T12:11:55;10.77;;;2.30;;
57217;SDS011;43078;52.972;6.482;2023-08-07T12:14:23;12.13;;;2.35;;
57217;SDS011;43078;52.972;6.482;2023-08-07T12:16:54;7.40;;;1.92;;
57217;SDS011;43078;52.972;6.482;2023-08-07T12:19:20;12.75;;;2.50;;
57217;SDS011;43078;52.972;6.482;2023-08-07T12:21:49;10.82;;;2.13;;
57217;SDS011;43078;52.972;6.482;2023-08-07T12:24:14;10.80;;;2.28;;
57217;SDS011;43078;52.972;6.482;2023-08-07T12:26:40;9.38;;;2.20;;
57217;SDS011;43078;52.972;6.482;2023-08-07T12:29:05;8.55;;;2.00;;
57217;SDS011;43078;52.972;6.482;2023-08-07T12:31:31;9.23;;;2.15;;
57217;SDS011;43078;52.972;6.482;2023-08-07T12:33:57;7.57;;;2.30;;
57217;SDS011;43078;52.972;6.482;2023-08-07T12:36:22;11.70;;;2.17;;
57217;SDS011;43078;52.972;6.482;2023-08-07T12:38:48;8.95;;;2.20;;
57217;SDS011;43078;52.972;6.482;2023-08-07T12:41:14;9.93;;;1.90;;
57217;SDS011;43078;52.972;6.482;2023-08-07T12:43:40;7.32;;;2.28;;
57217;SDS011;43078;52.972;6.482;2023-08-07T12:46:05;7.72;;;2.00;;
57217;SDS011;43078;52.972;6.482;2023-08-07T12:48:31;6.88;;;1.88;;
57217;SDS011;43078;52.972;6.482;2023-08-07T12:50:56;6.32;;;1.88;;
57217;SDS011;43078;52.972;6.482;2023-08-07T12:53:22;8.52;;;2.20;;
57217;SDS011;43078;52.972;6.482;2023-08-07T12:55:48;8.07;;;1.98;;
57217;SDS011;43078;52.972;6.482;2023-08-07T12:58:13;6.22;;;1.95;;
57217;SDS011;43078;52.972;6.482;2023-08-07T13:00:40;5.70;;;1.85;;
57217;SDS011;43078;52.972;6.482;2023-08-07T13:03:06;8.02;;;2.28;;
57217;SDS011;43078;52.972;6.482;2023-08-07T13:05:31;7.43;;;2.10;;
57217;SDS011;43078;52.972;6.482;2023-08-07T13:07:57;7.70;;;1.95;;
57217;SDS011;43078;52.972;6.482;2023-08-07T13:10:24;7.88;;;1.65;;
57217;SDS011;43078;52.972;6.482;2023-08-07T13:12:53;6.13;;;2.00;;
57217;SDS011;43078;52.972;6.482;2023-08-07T13:15:18;8.30;;;2.30;;
57217;SDS011;43078;52.972;6.482;2023-08-07T13:17:44;7.05;;;2.05;;
57217;SDS011;43078;52.972;6.482;2023-08-07T13:20:11;8.13;;;2.13;;
57217;SDS011;43078;52.972;6.482;2023-08-07T13:22:38;8.00;;;2.25;;
57217;SDS011;43078;52.972;6.482;2023-08-07T13:25:05;6.57;;;2.08;;
57217;SDS011;43078;52.972;6.482;2023-08-07T13:27:32;7.15;;;2.25;;
57217;SDS011;43078;52.972;6.482;2023-08-07T13:29:58;6.90;;;1.90;;
57217;SDS011;43078;52.972;6.482;2023-08-07T13:32:25;7.68;;;1.70;;
57217;SDS011;43078;52.972;6.482;2023-08-07T13:34:51;7.68;;;1.83;;
57217;SDS011;43078;52.972;6.482;2023-08-07T13:37:16;5.68;;;1.80;;
57217;SDS011;43078;52.972;6.482;2023-08-07T13:39:42;7.32;;;2.30;;
57217;SDS011;43078;52.972;6.482;2023-08-07T13:42:08;7.88;;;2.03;;
57217;SDS011;43078;52.972;6.482;2023-08-07T13:44:35;7.07;;;2.25;;
57217;SDS011;43078;52.972;6.482;2023-08-07T13:47:01;5.90;;;2.10;;
57217;SDS011;43078;52.972;6.482;2023-08-07T13:49:27;8.88;;;2.33;;
57217;SDS011;43078;52.972;6.482;2023-08-07T13:51:55;10.70;;;2.38;;
57217;SDS011;43078;52.972;6.482;2023-08-07T13:54:21;8.48;;;2.55;;
57217;SDS011;43078;52.972;6.482;2023-08-07T13:56:47;9.65;;;2.50;;
57217;SDS011;43078;52.972;6.482;2023-08-07T13:59:13;9.52;;;2.30;;
57217;SDS011;43078;52.972;6.482;2023-08-07T14:01:38;8.27;;;2.30;;
57217;SDS011;43078;52.972;6.482;2023-08-07T14:04:04;10.02;;;2.30;;
57217;SDS011;43078;52.972;6.482;2023-08-07T14:06:30;9.75;;;2.25;;
57217;SDS011;43078;52.972;6.482;2023-08-07T14:08:56;10.13;;;2.35;;
57217;SDS011;43078;52.972;6.482;2023-08-07T14:11:21;10.65;;;2.10;;
57217;SDS011;43078;52.972;6.482;2023-08-07T14:13:49;9.13;;;2.25;;
57217;SDS011;43078;52.972;6.482;2023-08-07T14:16:15;9.30;;;2.08;;
57217;SDS011;43078;52.972;6.482;2023-08-07T14:18:40;8.60;;;2.15;;
57217;SDS011;43078;52.972;6.482;2023-08-07T14:21:07;6.57;;;2.00;;
57217;SDS011;43078;52.972;6.482;2023-08-07T14:23:32;8.07;;;2.25;;
57217;SDS011;43078;52.972;6.482;2023-08-07T14:25:58;6.47;;;2.00;;
57217;SDS011;43078;52.972;6.482;2023-08-07T14:28:23;6.40;;;1.83;;
57217;SDS011;43078;52.972;6.482;2023-08-07T14:30:50;8.20;;;2.22;;
57217;SDS011;43078;52.972;6.482;2023-08-07T14:33:16;6.72;;;2.00;;
57217;SDS011;43078;52.972;6.482;2023-08-07T14:35:42;7.57;;;2.13;;
57217;SDS011;43078;52.972;6.482;2023-08-07T14:38:07;10.93;;;2.30;;
57217;SDS011;43078;52.972;6.482;2023-08-07T14:40:33;8.98;;;2.00;;
57217;SDS011;43078;52.972;6.482;2023-08-07T14:42:59;8.88;;;1.80;;
57217;SDS011;43078;52.972;6.482;2023-08-07T14:45:24;10.35;;;2.20;;
57217;SDS011;43078;52.972;6.482;2023-08-07T14:47:50;6.65;;;1.75;;